Bridgewater, Canada
Current Conditions -  °F | °C
As of 12:00 AM on Saturday 25 Oct 2014 (Local Time) from CYZX Reporting Station
Drizzle Drizzle  
Wind Chill: 52°   Ceiling: 1300
Heat Index: 52°   Visibility: 6mi
Dew Point: 50°   Wind: 5mph
Humidity: 94%   Direction: 330°NNW
Pressure: 29.48"   Gusts: NA
Location:  44.37°N, 64.52°W
Report Text: CYZX 250300Z 33004KT 6SM -DZ BR SCT009 OVC013 11/10 A2948 RMK SF4SC4 WNDY HILL UNAVBL SLP984
Loading
Personal Weather Stations






























Interactive Weather Map
Tropical Storm Tracking
New forecast layout! Learn more

10-Day Weather Forecast

Advertisements
Track Severe Weather on mobile